Погода Вилла-Марияна неделю

Кордова, Аргентина

31 января-06 февраля
  • 31января
    Сегодня
    +21°
    +33°
    Небольшая облачность
    ВремяПогодаТемператураВлажностьДавлениеВетер, м/сВероятность осадков
    00:00Ясно и безоблачно+24°C73 %740 мм1.8 м/с5 %
    03:00Ясно и безоблачно+23°C79 %740 мм2.2 м/с5 %
    06:00Ясно и безоблачно+22°C89 %740 мм1.4 м/с5 %
    09:00Ясно и безоблачно+25°C72 %741 мм0.7 м/с5 %
    12:00Ясно и безоблачно+30°C51 %742 мм1.8 м/с5 %
    15:00Небольшая облачность+32°C44 %741 мм1.7 м/с2 %
    18:00Практически безоблачно+32°C43 %739 мм2.3 м/с2 %
    21:00Небольшая облачность+29°C56 %741 мм2.5 м/с5 %
  • 01февраля
    Среда
    +19°
    +33°
    Небольшая облачность
    ВремяПогодаТемператураВлажностьДавлениеВетер, м/сВероятность осадков
    00:00Практически безоблачно+25°C64 %742 мм1.8 м/с5 %
    03:00Небольшая облачность+23°C66 %741 мм1.8 м/с5 %
    06:00Небольшая облачность+22°C72 %741 мм1.3 м/с5 %
    09:00Облачно с прояснениями+23°C69 %742 мм1.1 м/с7 %
    12:00Небольшая облачность+29°C49 %742 мм1.3 м/с2 %
    15:00Небольшая облачность+32°C42 %741 мм1.9 м/с3 %
    18:00Облачно с прояснениями+31°C50 %741 мм3.3 м/с11 %
    21:00Облачно с прояснениями+25°C73 %742 мм3.4 м/с18 %
  • 02февраля
    Четверг
    +20°
    +27°
    Небольшая облачность
    ВремяПогодаТемператураВлажностьДавлениеВетер, м/сВероятность осадков
    00:00Пасмурно, дожди с грозами+21°C94 %744 мм3.8 м/с58 %
    03:00Пасмурно, дожди с грозами+21°C97 %743 мм2.6 м/с76 %
    06:00Пасмурно, дождь+20°C97 %744 мм2.7 м/с85 %
    09:00Пасмурно, небольшой дождь+20°C88 %745 мм3.1 м/с79 %
    12:00Облачно с прояснениями+24°C69 %745 мм3.1 м/с40 %
    15:00Небольшая облачность+25°C65 %744 мм3.4 м/с37 %
    18:00Ясно и безоблачно+27°C63 %743 мм3.4 м/с23 %
    21:00Ясно и безоблачно+25°C78 %744 мм2.3 м/с4 %
  • 03февраля
    Пятница
    +19°
    +28°
    Практически безоблачно
    ВремяПогодаТемператураВлажностьДавлениеВетер, м/сВероятность осадков
    00:00Ясно и безоблачно+22°C85 %745 мм2.2 м/с14 %
    03:00Ясно и безоблачно+22°C91 %745 мм2.3 м/с13 %
    06:00Ясно и безоблачно+20°C96 %745 мм2.6 м/с13 %
    09:00Практически безоблачно+22°C83 %746 мм3.4 м/с10 %
    12:00Практически безоблачно+26°C60 %746 мм4.1 м/с10 %
    15:00Практически безоблачно+28°C52 %745 мм4.5 м/с5 %
    18:00Ясно и безоблачно+27°C53 %744 мм4.2 м/с4 %
    21:00Ясно и безоблачно+25°C71 %745 мм2.2 м/с3 %
  • 04февраля
    Суббота
    +18°
    +29°
    Ясно и безоблачно
    ВремяПогодаТемператураВлажностьДавлениеВетер, м/сВероятность осадков
    00:00Ясно и безоблачно+22°C80 %747 мм2.1 м/с5 %
    03:00Ясно и безоблачно+21°C88 %746 мм1.7 м/с5 %
    06:00Ясно и безоблачно+20°C92 %746 мм1.4 м/с5 %
    09:00Ясно и безоблачно+22°C79 %747 мм0.3 м/с5 %
    12:00Ясно и безоблачно+26°C58 %747 мм0.8 м/с5 %
    15:00Ясно и безоблачно+29°C43 %746 мм1.1 м/с5 %
    18:00Небольшая облачность+29°C41 %744 мм2.4 м/с5 %
    21:00Ясно и безоблачно+25°C62 %745 мм2.1 м/с5 %
Мы используем cookies
Соглашаюсь